createdAt,value
2018-05-08T00:00:05.220Z,71.35
2018-05-08T00:02:32.973Z,71.44
2018-05-08T00:05:00.508Z,71.41
2018-05-08T00:07:28.053Z,71.61
2018-05-08T00:09:55.643Z,71.54
2018-05-08T00:12:23.223Z,71.05
2018-05-08T00:14:50.766Z,71.23
2018-05-08T00:17:18.452Z,71.18
2018-05-08T00:19:45.988Z,71.41
2018-05-08T00:22:13.531Z,71.34
2018-05-08T00:24:41.102Z,71.47
2018-05-08T00:27:08.639Z,71.48
2018-05-08T00:29:36.209Z,71.69
2018-05-08T00:32:03.927Z,72.17
2018-05-08T00:34:31.475Z,72.29
2018-05-08T00:36:59.025Z,72.57
2018-05-08T00:39:26.601Z,72.66
2018-05-08T00:41:54.140Z,72.59
2018-05-08T00:44:21.697Z,72.09
2018-05-08T00:46:49.312Z,71.98
2018-05-08T00:49:16.848Z,71.85
2018-05-08T00:51:44.388Z,72.06
2018-05-08T00:54:11.969Z,71.80
2018-05-08T00:56:39.525Z,71.64
2018-05-08T00:59:07.061Z,71.47
2018-05-08T01:01:34.636Z,71.92
2018-05-08T01:04:02.194Z,71.95
2018-05-08T01:06:29.742Z,72.05
2018-05-08T01:08:57.470Z,71.80
2018-05-08T01:11:25.007Z,71.89
2018-05-08T01:13:52.561Z,72.70
2018-05-08T01:16:20.305Z,71.48
2018-05-08T01:18:47.853Z,71.28
2018-05-08T01:21:15.411Z,71.31
2018-05-08T01:23:43.094Z,70.99
2018-05-08T01:26:10.639Z,71.29
2018-05-08T01:28:38.174Z,71.13
2018-05-08T01:31:06.075Z,70.49
2018-05-08T01:33:33.623Z,70.72
2018-05-08T01:36:01.166Z,70.88
2018-05-08T01:38:28.855Z,71.25
2018-05-08T01:40:56.409Z,71.46
2018-05-08T01:43:23.985Z,71.22
2018-05-08T01:45:51.551Z,70.99
2018-05-08T01:48:19.092Z,70.85
2018-05-08T01:50:46.675Z,70.92
2018-05-08T01:53:14.561Z,70.89
2018-05-08T01:55:42.097Z,70.99
2018-05-08T01:58:09.639Z,71.57
2018-05-08T02:00:37.298Z,71.35
2018-05-08T02:03:04.849Z,71.21
2018-05-08T02:05:32.401Z,71.31
2018-05-08T02:08:00.067Z,71.43
2018-05-08T02:10:27.606Z,71.52
2018-05-08T02:12:55.165Z,72.02
2018-05-08T02:15:22.861Z,72.19
2018-05-08T02:17:50.405Z,71.99
2018-05-08T02:20:18.017Z,72.04
2018-05-08T02:22:45.568Z,72.11
2018-05-08T02:25:13.103Z,72.16
2018-05-08T02:27:40.640Z,72.10
2018-05-08T02:30:08.545Z,72.33
2018-05-08T02:32:36.089Z,72.10
2018-05-08T02:35:03.637Z,71.86
2018-05-08T02:37:31.206Z,71.53
2018-05-08T02:39:58.761Z,71.65
2018-05-08T02:42:26.327Z,71.36
2018-05-08T02:44:53.888Z,71.42
2018-05-08T02:47:21.433Z,71.49
2018-05-08T02:49:49.000Z,71.85
2018-05-08T02:52:16.592Z,72.38
2018-05-08T02:54:44.142Z,72.70
2018-05-08T02:57:11.697Z,72.67
2018-05-08T02:59:39.364Z,73.20
2018-05-08T03:02:06.907Z,73.20
2018-05-08T03:04:34.460Z,73.62
2018-05-08T03:07:02.182Z,74.47
2018-05-08T03:09:29.738Z,74.71
2018-05-08T03:11:57.284Z,74.87
2018-05-08T03:14:25.195Z,74.85
2018-05-08T03:16:52.727Z,75.01
2018-05-08T03:19:20.271Z,75.51
2018-05-08T03:21:47.823Z,75.43
2018-05-08T03:24:15.402Z,75.48
2018-05-08T03:26:42.975Z,75.04
2018-05-08T03:29:10.516Z,74.33
2018-05-08T03:31:38.084Z,74.54
2018-05-08T03:34:06.774Z,74.32
2018-05-08T03:36:34.329Z,74.08
2018-05-08T03:39:01.875Z,73.96
2018-05-08T03:41:29.462Z,73.75
2018-05-08T03:43:57.024Z,73.78
2018-05-08T03:46:24.567Z,74.22
2018-05-08T03:48:52.153Z,73.87
2018-05-08T03:51:19.705Z,73.01
2018-05-08T03:53:47.266Z,69.39
2018-05-08T03:56:14.852Z,65.54
2018-05-08T03:58:42.421Z,63.35
2018-05-08T04:01:21.671Z,61.53
2018-05-08T04:04:00.821Z,60.36
2018-05-08T04:06:40.278Z,58.19
2018-05-08T04:09:07.817Z,54.46
2018-05-08T04:11:35.357Z,51.22
2018-05-08T04:14:03.041Z,48.78
2018-05-08T04:16:30.613Z,47.93
2018-05-08T04:18:58.148Z,46.22
2018-05-08T04:21:25.686Z,45.93
2018-05-08T04:23:54.124Z,42.46
2018-05-08T04:26:21.859Z,40.46
2018-05-08T04:28:49.393Z,36.70
2018-05-08T04:31:16.946Z,34.96
2018-05-08T04:33:44.891Z,32.57
2018-05-08T04:36:12.434Z,31.48
2018-05-08T04:38:40.000Z,29.94
2018-05-08T04:41:07.565Z,28.48
2018-05-08T04:43:35.102Z,28.37
2018-05-08T04:46:02.662Z,27.27
2018-05-08T04:48:30.559Z,26.94
2018-05-08T04:50:58.096Z,26.10
2018-05-08T04:53:25.654Z,26.09
2018-05-08T04:55:53.452Z,25.41
2018-05-08T04:58:20.960Z,25.52
2018-05-08T05:00:48.512Z,24.90
2018-05-08T05:03:16.116Z,23.63
2018-05-08T05:05:43.672Z,23.75
2018-05-08T05:08:11.240Z,23.66
2018-05-08T05:10:38.973Z,23.47
2018-05-08T05:13:06.520Z,23.79
2018-05-08T05:15:34.085Z,23.69
2018-05-08T05:18:01.816Z,23.90
2018-05-08T05:20:29.354Z,22.63
2018-05-08T05:22:56.913Z,23.45
2018-05-08T05:25:24.531Z,23.10
2018-05-08T05:27:52.071Z,24.23
2018-05-08T05:30:19.617Z,26.18
2018-05-08T05:32:47.200Z,26.36
2018-05-08T05:35:14.732Z,27.85
2018-05-08T05:37:42.268Z,29.05
2018-05-08T05:40:09.835Z,29.28
2018-05-08T05:42:37.382Z,29.68
2018-05-08T05:45:04.966Z,30.69
2018-05-08T05:47:32.534Z,32.63
2018-05-08T05:50:00.086Z,34.64
2018-05-08T05:52:27.644Z,34.60
2018-05-08T05:54:55.527Z,35.42
2018-05-08T05:57:23.074Z,36.49
2018-05-08T05:59:50.638Z,36.36
2018-05-08T06:02:18.464Z,35.55
2018-05-08T06:04:46.016Z,35.46
2018-05-08T06:07:13.582Z,34.81
2018-05-08T06:09:41.269Z,34.55
2018-05-08T06:12:08.822Z,34.71
2018-05-08T06:14:36.400Z,36.07
2018-05-08T06:17:03.976Z,35.07
2018-05-08T06:19:31.521Z,35.66
2018-05-08T06:21:59.071Z,33.40
2018-05-08T06:24:26.963Z,35.04
2018-05-08T06:26:54.507Z,33.88
2018-05-08T06:29:22.091Z,35.23
2018-05-08T06:31:49.816Z,34.09
2018-05-08T06:34:17.370Z,33.87
2018-05-08T06:36:44.899Z,34.70
2018-05-08T06:39:12.693Z,36.21
2018-05-08T06:41:41.154Z,35.54
2018-05-08T06:44:08.715Z,37.11
2018-05-08T06:46:36.760Z,36.17
2018-05-08T06:49:04.341Z,35.70
2018-05-08T06:51:31.888Z,33.21
2018-05-08T06:53:59.464Z,35.65
2018-05-08T06:56:27.017Z,36.70
2018-05-08T06:58:54.577Z,37.05
2018-05-08T07:01:22.147Z,38.08
2018-05-08T07:03:50.073Z,37.05
2018-05-08T07:06:17.633Z,38.51
2018-05-08T07:08:45.223Z,36.84
2018-05-08T07:11:12.758Z,36.97
2018-05-08T07:13:40.323Z,36.87
2018-05-08T07:16:08.213Z,36.73
2018-05-08T07:18:35.604Z,37.18
2018-05-08T07:21:03.138Z,39.64
2018-05-08T07:23:30.863Z,39.49
2018-05-08T07:25:58.408Z,40.29
2018-05-08T07:28:25.946Z,39.35
2018-05-08T07:30:53.892Z,37.15
2018-05-08T07:33:21.435Z,37.27
2018-05-08T07:35:48.990Z,36.99
2018-05-08T07:38:16.686Z,36.46
2018-05-08T07:40:44.162Z,37.42
2018-05-08T07:43:11.696Z,38.69
2018-05-08T07:45:39.315Z,39.49
2018-05-08T07:48:06.873Z,40.29
2018-05-08T07:50:34.416Z,39.53
2018-05-08T07:53:01.990Z,40.03
2018-05-08T07:55:29.544Z,41.59
2018-05-08T07:57:57.086Z,43.32
2018-05-08T08:00:24.664Z,44.18
2018-05-08T08:02:52.208Z,46.29
2018-05-08T08:05:19.753Z,47.17
2018-05-08T08:07:47.651Z,47.21
2018-05-08T08:10:15.188Z,46.24
2018-05-08T08:12:42.731Z,45.33
2018-05-08T08:15:10.321Z,46.97
2018-05-08T08:17:37.895Z,46.30
2018-05-08T08:20:05.517Z,44.02
2018-05-08T08:22:33.069Z,42.05
2018-05-08T08:25:00.632Z,41.69
2018-05-08T08:27:28.212Z,40.63
2018-05-08T08:29:55.755Z,41.79
2018-05-08T08:32:23.299Z,42.80
2018-05-08T08:34:50.977Z,42.66
2018-05-08T08:37:18.521Z,43.13
2018-05-08T08:39:46.081Z,42.12
2018-05-08T08:42:13.826Z,42.87
2018-05-08T08:44:41.373Z,41.01
2018-05-08T08:47:08.922Z,41.59
2018-05-08T08:49:36.525Z,40.32
2018-05-08T08:52:04.071Z,38.88
2018-05-08T08:54:31.634Z,38.10
2018-05-08T08:56:59.200Z,38.33
2018-05-08T08:59:26.740Z,37.45
2018-05-08T09:01:54.279Z,35.72
2018-05-08T09:04:21.852Z,35.26
2018-05-08T09:06:49.393Z,35.29
2018-05-08T09:09:16.936Z,36.20
2018-05-08T09:11:44.667Z,36.78
2018-05-08T09:14:12.227Z,35.86
2018-05-08T09:16:39.770Z,38.08
2018-05-08T09:19:07.344Z,38.59
2018-05-08T09:21:34.879Z,38.40
2018-05-08T09:24:02.415Z,38.53
2018-05-08T09:26:30.130Z,34.56
2018-05-08T09:28:57.667Z,34.26
2018-05-08T09:31:25.199Z,35.72
2018-05-08T09:33:52.791Z,34.62
2018-05-08T09:36:20.331Z,33.69
2018-05-08T09:38:47.876Z,32.97
2018-05-08T09:41:15.780Z,33.09
2018-05-08T09:43:43.360Z,33.31
2018-05-08T09:46:10.874Z,34.48
2018-05-08T09:48:38.540Z,36.23
2018-05-08T09:51:06.101Z,35.74
2018-05-08T09:53:33.657Z,36.20
2018-05-08T09:56:01.429Z,35.81
2018-05-08T09:58:28.984Z,36.81
2018-05-08T10:00:56.630Z,36.01
2018-05-08T10:03:24.322Z,33.80
2018-05-08T10:05:51.850Z,35.27
2018-05-08T10:08:19.388Z,33.91
2018-05-08T10:10:47.095Z,33.52
2018-05-08T10:13:14.635Z,32.81
2018-05-08T10:15:42.172Z,32.19
2018-05-08T10:18:09.759Z,31.90
2018-05-08T10:20:37.295Z,32.98
2018-05-08T10:23:04.847Z,33.34
2018-05-08T10:25:32.418Z,32.70
2018-05-08T10:27:59.952Z,33.20
2018-05-08T10:30:27.497Z,32.99
2018-05-08T10:32:55.247Z,31.08
2018-05-08T10:35:22.800Z,31.01
2018-05-08T10:37:50.359Z,32.26
2018-05-08T10:40:18.212Z,31.59
2018-05-08T10:42:45.829Z,30.72
2018-05-08T10:45:13.324Z,30.61
2018-05-08T10:47:41.067Z,31.35
2018-05-08T10:50:08.602Z,30.35
2018-05-08T10:52:36.161Z,30.22
2018-05-08T10:55:03.811Z,29.65
2018-05-08T10:57:31.361Z,28.29
2018-05-08T10:59:58.908Z,28.60
2018-05-08T11:02:26.611Z,29.44
2018-05-08T11:04:54.147Z,29.05
2018-05-08T11:07:21.699Z,29.76
2018-05-08T11:09:49.328Z,30.49
2018-05-08T11:12:16.857Z,29.10
2018-05-08T11:14:44.775Z,27.13
2018-05-08T11:17:12.379Z,27.12
2018-05-08T11:19:39.951Z,28.84
2018-05-08T11:22:07.507Z,27.66
2018-05-08T11:24:35.224Z,27.06
2018-05-08T11:27:03.366Z,26.61
2018-05-08T11:29:30.898Z,25.38
2018-05-08T11:31:58.812Z,26.36
2018-05-08T11:34:26.353Z,28.86
2018-05-08T11:36:53.906Z,27.42
2018-05-08T11:39:21.555Z,26.46
2018-05-08T11:41:49.051Z,26.33
2018-05-08T11:44:16.604Z,26.09
2018-05-08T11:46:44.587Z,27.24
2018-05-08T11:49:12.123Z,25.21
2018-05-08T11:51:39.703Z,27.27
2018-05-08T11:54:07.391Z,27.43
2018-05-08T11:56:34.923Z,26.14
2018-05-08T11:59:02.491Z,26.30
2018-05-08T12:01:30.144Z,24.22
2018-05-08T12:03:57.694Z,25.57
2018-05-08T12:06:25.246Z,26.24
2018-05-08T12:08:52.977Z,25.55
2018-05-08T12:11:20.533Z,25.65
2018-05-08T12:13:48.100Z,25.90
2018-05-08T12:16:15.776Z,25.23
2018-05-08T12:18:43.322Z,26.42
2018-05-08T12:21:10.878Z,26.49
2018-05-08T12:23:38.614Z,26.14
2018-05-08T12:26:06.177Z,24.57
2018-05-08T12:28:33.719Z,24.51
2018-05-08T12:31:01.291Z,23.38
2018-05-08T12:33:28.830Z,24.17
2018-05-08T12:35:56.464Z,25.28
2018-05-08T12:38:23.998Z,25.37
2018-05-08T12:40:51.563Z,25.48
2018-05-08T12:43:19.120Z,26.80
2018-05-08T12:45:46.877Z,25.49
2018-05-08T12:48:14.423Z,24.87
2018-05-08T12:50:41.960Z,23.23
2018-05-08T12:53:09.554Z,24.70
2018-05-08T12:55:37.117Z,24.21
2018-05-08T12:58:04.683Z,24.49
2018-05-08T13:00:32.405Z,24.58
2018-05-08T13:02:59.957Z,23.33
2018-05-08T13:05:27.549Z,25.32
2018-05-08T13:07:55.115Z,24.61
2018-05-08T13:10:22.805Z,24.70
2018-05-08T13:12:50.348Z,24.91
2018-05-08T13:15:17.888Z,24.47
2018-05-08T13:17:45.448Z,25.03
2018-05-08T13:20:12.990Z,24.41
2018-05-08T13:22:40.546Z,24.64
2018-05-08T13:25:08.272Z,24.15
2018-05-08T13:27:35.824Z,24.76
2018-05-08T13:30:03.464Z,25.11
2018-05-08T13:32:31.040Z,24.60
2018-05-08T13:34:58.584Z,24.60
2018-05-08T13:37:26.132Z,25.37
2018-05-08T13:39:53.708Z,26.01
2018-05-08T13:42:21.282Z,25.92
2018-05-08T13:44:48.833Z,27.40
2018-05-08T13:47:16.443Z,32.07
2018-05-08T13:49:43.996Z,33.01
2018-05-08T13:52:11.552Z,33.41
2018-05-08T13:54:39.290Z,32.64
2018-05-08T13:57:06.842Z,32.39
2018-05-08T13:59:34.396Z,32.76
2018-05-08T14:02:02.106Z,34.74
2018-05-08T14:04:29.659Z,35.27
2018-05-08T14:06:57.257Z,36.26
2018-05-08T14:09:24.908Z,37.00
2018-05-08T14:11:52.467Z,37.76
2018-05-08T14:14:20.058Z,37.24
2018-05-08T14:16:47.827Z,38.21
2018-05-08T14:19:15.403Z,37.87
2018-05-08T14:21:42.970Z,39.13
2018-05-08T14:24:10.549Z,39.21
2018-05-08T14:26:38.148Z,39.16
2018-05-08T14:29:05.713Z,38.55
2018-05-08T14:31:33.429Z,39.36
2018-05-08T14:34:00.861Z,39.63
2018-05-08T14:36:28.419Z,40.34
2018-05-08T14:38:56.001Z,40.86
2018-05-08T14:41:23.557Z,41.84
2018-05-08T14:43:51.086Z,42.23
2018-05-08T14:46:18.813Z,42.04
2018-05-08T14:48:46.363Z,41.69
2018-05-08T14:51:13.932Z,40.90
2018-05-08T14:53:41.654Z,41.65
2018-05-08T14:56:09.210Z,41.28
2018-05-08T14:58:36.761Z,41.54
2018-05-08T15:01:04.451Z,40.45
2018-05-08T15:03:31.993Z,41.38
2018-05-08T15:05:59.539Z,40.46
2018-05-08T15:08:27.110Z,40.20
2018-05-08T15:10:54.683Z,40.01
2018-05-08T15:13:22.217Z,39.80
2018-05-08T15:15:49.784Z,39.50
2018-05-08T15:18:17.347Z,38.98
2018-05-08T15:20:44.903Z,39.72
2018-05-08T15:23:12.449Z,38.52
2018-05-08T15:25:39.988Z,39.46
2018-05-08T15:28:07.581Z,38.76
2018-05-08T15:30:35.127Z,39.31
2018-05-08T15:33:02.675Z,40.70
2018-05-08T15:35:30.232Z,39.63
2018-05-08T15:37:57.767Z,40.31
2018-05-08T15:40:25.304Z,40.57
2018-05-08T15:42:52.890Z,40.98
2018-05-08T15:45:20.470Z,41.54
2018-05-08T15:47:48.050Z,43.02
2018-05-08T15:50:15.635Z,42.25
2018-05-08T15:52:43.187Z,42.64
2018-05-08T15:55:10.804Z,42.82
2018-05-08T15:57:38.381Z,43.24
2018-05-08T16:00:05.955Z,44.30
2018-05-08T16:02:33.531Z,44.80
2018-05-08T16:05:01.122Z,43.66
2018-05-08T16:07:28.677Z,40.88
2018-05-08T16:09:56.233Z,42.37
2018-05-08T16:12:23.947Z,40.50
2018-05-08T16:14:51.480Z,40.24
2018-05-08T16:17:19.032Z,41.05
2018-05-08T16:19:46.941Z,41.89
2018-05-08T16:22:14.485Z,42.73
2018-05-08T16:24:42.078Z,43.17
2018-05-08T16:27:09.681Z,42.65
2018-05-08T16:29:37.232Z,42.51
2018-05-08T16:32:04.825Z,42.62
2018-05-08T16:34:32.403Z,43.41
2018-05-08T16:36:59.940Z,43.39
2018-05-08T16:39:27.549Z,44.50
2018-05-08T16:41:55.251Z,45.60
2018-05-08T16:44:22.801Z,44.88
2018-05-08T16:46:50.360Z,44.51
2018-05-08T16:49:18.097Z,44.62
2018-05-08T16:51:45.648Z,46.10
2018-05-08T16:54:13.215Z,46.25
2018-05-08T16:56:40.829Z,46.44
2018-05-08T16:59:08.376Z,43.90
2018-05-08T17:01:35.953Z,43.74
2018-05-08T17:04:03.872Z,45.12
2018-05-08T17:06:31.423Z,45.65
2018-05-08T17:08:58.976Z,47.04
2018-05-08T17:11:26.773Z,45.45
2018-05-08T17:13:54.315Z,45.29
2018-05-08T17:16:21.860Z,46.50
2018-05-08T17:18:49.524Z,47.02
2018-05-08T17:21:17.027Z,43.87
2018-05-08T17:23:44.565Z,45.24
2018-05-08T17:26:12.464Z,43.40
2018-05-08T17:28:40.014Z,44.61
2018-05-08T17:31:07.577Z,45.32
2018-05-08T17:33:35.243Z,45.34
2018-05-08T17:36:02.769Z,47.74
2018-05-08T17:38:30.330Z,44.50
2018-05-08T17:40:58.239Z,45.28
2018-05-08T17:43:25.788Z,45.54
2018-05-08T17:45:53.348Z,45.21
2018-05-08T17:48:21.269Z,45.70
2018-05-08T17:50:48.818Z,43.93
2018-05-08T17:53:16.400Z,43.95
2018-05-08T17:55:44.020Z,47.18
2018-05-08T17:58:11.582Z,47.51
2018-05-08T18:00:39.137Z,47.78
2018-05-08T18:03:06.864Z,48.22
2018-05-08T18:05:34.433Z,49.08
2018-05-08T18:08:02.024Z,47.38
2018-05-08T18:10:29.936Z,44.59
2018-05-08T18:12:57.498Z,44.61
2018-05-08T18:15:25.055Z,44.52
2018-05-08T18:17:52.677Z,45.30
2018-05-08T18:20:20.219Z,45.59
2018-05-08T18:22:47.816Z,45.97
2018-05-08T18:25:15.499Z,46.29
2018-05-08T18:27:43.076Z,46.03
2018-05-08T18:30:10.642Z,47.97
2018-05-08T18:32:39.292Z,48.95
2018-05-08T18:35:06.874Z,49.56
2018-05-08T18:37:34.433Z,50.25
2018-05-08T18:40:02.035Z,50.86
2018-05-08T18:42:29.579Z,51.51
2018-05-08T18:44:57.167Z,50.80
2018-05-08T18:47:24.930Z,50.71
2018-05-08T18:49:52.508Z,51.19
2018-05-08T18:52:20.071Z,51.22
2018-05-08T18:54:47.831Z,51.68
2018-05-08T18:57:15.397Z,51.53
2018-05-08T18:59:42.953Z,51.85
2018-05-08T19:02:10.538Z,51.58
2018-05-08T19:04:38.114Z,51.90
2018-05-08T19:07:05.719Z,52.42
2018-05-08T19:09:33.313Z,52.89
2018-05-08T19:12:00.886Z,53.13
2018-05-08T19:14:28.448Z,53.25
2018-05-08T19:16:56.044Z,53.36
2018-05-08T19:19:29.065Z,53.77
2018-05-08T19:21:56.559Z,54.02
2018-05-08T19:24:29.560Z,54.14
2018-05-08T19:26:57.116Z,54.38
2018-05-08T19:29:30.142Z,54.09
2018-05-08T19:31:57.759Z,54.38
2018-05-08T19:37:35.242Z,55.12
2018-05-08T19:40:02.969Z,55.40
2018-05-08T19:42:30.513Z,55.66
2018-05-08T19:44:58.072Z,55.85
2018-05-08T19:47:25.659Z,55.87
2018-05-08T19:49:53.196Z,56.02
2018-05-08T19:52:20.754Z,56.28
2018-05-08T19:54:48.344Z,56.21
2018-05-08T19:57:15.909Z,56.14
2018-05-08T19:59:43.456Z,56.36
2018-05-08T20:02:11.037Z,56.78
2018-05-08T20:04:38.572Z,56.83
2018-05-08T20:07:06.116Z,57.00
2018-05-08T20:09:34.020Z,57.01
2018-05-08T20:12:01.552Z,56.82
2018-05-08T20:14:29.090Z,57.04
2018-05-08T20:16:56.834Z,57.25
2018-05-08T20:19:24.394Z,57.36
2018-05-08T20:21:51.927Z,57.31
2018-05-08T20:24:19.585Z,57.32
2018-05-08T20:26:47.146Z,57.44
2018-05-08T20:29:14.689Z,57.22
2018-05-08T20:31:42.408Z,57.56
2018-05-08T20:34:09.946Z,57.59
2018-05-08T20:36:37.489Z,57.93
2018-05-08T20:39:06.230Z,58.01
2018-05-08T20:41:33.776Z,58.27
2018-05-08T20:44:01.336Z,58.38
2018-05-08T20:46:29.069Z,58.52
2018-05-08T20:48:56.602Z,58.80
2018-05-08T20:51:24.145Z,59.20
2018-05-08T20:53:51.717Z,59.25
2018-05-08T20:56:19.264Z,59.58
2018-05-08T20:58:47.040Z,59.98
2018-05-08T21:01:14.715Z,60.06
2018-05-08T21:03:42.206Z,60.17
2018-05-08T21:06:09.744Z,60.28
2018-05-08T21:08:37.465Z,60.39
2018-05-08T21:11:05.004Z,60.29
2018-05-08T21:13:32.551Z,60.30
2018-05-08T21:16:00.295Z,60.24
2018-05-08T21:18:27.854Z,60.41
2018-05-08T21:20:55.390Z,60.65
2018-05-08T21:23:22.928Z,60.95
2018-05-08T21:25:50.472Z,61.35
2018-05-08T21:28:23.500Z,61.87
2018-05-08T21:30:56.513Z,62.39
2018-05-08T21:33:24.403Z,62.46
2018-05-08T21:35:51.941Z,62.48
2018-05-08T21:38:19.487Z,62.74
2018-05-08T21:40:47.080Z,62.82
2018-05-08T21:43:14.644Z,62.88
2018-05-08T21:45:42.189Z,62.98
2018-05-08T21:48:09.778Z,63.01
2018-05-08T21:50:37.336Z,62.97
2018-05-08T21:53:04.985Z,63.03
2018-05-08T21:55:32.667Z,63.03
2018-05-08T21:58:00.207Z,63.01
2018-05-08T22:00:27.747Z,63.13
2018-05-08T22:02:55.336Z,63.34
2018-05-08T22:05:22.880Z,63.28
2018-05-08T22:07:50.425Z,63.36
2018-05-08T22:10:18.163Z,62.88
2018-05-08T22:12:45.704Z,63.00
2018-05-08T22:15:13.270Z,63.12
2018-05-08T22:17:40.988Z,63.32
2018-05-08T22:20:08.562Z,63.46
2018-05-08T22:22:36.096Z,63.44
2018-05-08T22:25:03.824Z,63.44
2018-05-08T22:27:31.365Z,63.51
2018-05-08T22:29:58.892Z,63.38
2018-05-08T22:32:26.462Z,63.49
2018-05-08T22:34:53.990Z,63.63
2018-05-08T22:37:21.529Z,63.55
2018-05-08T22:39:49.101Z,63.43
2018-05-08T22:42:16.647Z,63.12
2018-05-08T22:44:44.182Z,63.00
2018-05-08T22:47:11.765Z,62.87
2018-05-08T22:49:39.311Z,62.77
2018-05-08T22:52:06.846Z,62.77
2018-05-08T22:54:34.497Z,62.94
2018-05-08T22:57:02.049Z,62.87
2018-05-08T22:59:29.583Z,62.85
2018-05-08T23:01:57.487Z,62.96
2018-05-08T23:04:25.016Z,63.08
2018-05-08T23:06:52.551Z,63.18
2018-05-08T23:09:20.151Z,63.27
2018-05-08T23:11:47.710Z,63.61
2018-05-08T23:14:15.276Z,63.36
2018-05-08T23:16:43.183Z,63.77
2018-05-08T23:19:10.724Z,63.83
2018-05-08T23:21:38.270Z,63.84
2018-05-08T23:24:05.821Z,63.70
2018-05-08T23:26:33.354Z,64.00
2018-05-08T23:29:00.955Z,64.25
2018-05-08T23:31:28.492Z,64.10
2018-05-08T23:33:56.036Z,63.89
2018-05-08T23:36:23.756Z,63.82
2018-05-08T23:38:51.316Z,63.79
2018-05-08T23:41:18.898Z,63.91
2018-05-08T23:43:46.464Z,64.15
2018-05-08T23:46:13.997Z,64.26
2018-05-08T23:48:41.574Z,64.38
2018-05-08T23:51:09.149Z,64.57
2018-05-08T23:53:36.696Z,64.59
2018-05-08T23:56:04.252Z,64.59
2018-05-08T23:58:31.959Z,64.76
